Chingolo, Zambia
Current Conditions -  °F | °C
As of 12:00 PM on Saturday 22 Nov 2014 (Local Time) from FBKE Reporting Station
Scattered Clouds Scattered Clouds  
Wind Chill: 91°   Ceiling: Unl
Heat Index: 91°   Visibility: 6mi
Dew Point: 57°   Wind: 10mph
Humidity: 31%   Direction: 360°N
Pressure: 30.06"   Gusts: NA
Location:  12.53°S, 27.87°E
Report Text: FBKE 221000Z 36009KT 330V030 9999 SCT030 33/14 Q1018
Loading
Personal Weather Stations






























Interactive Weather Map New forecast layout! Learn more

10-Day Weather Forecast

Advertisements
Track Severe Weather on mobile